TAF Text Data
IDs:
Format:
Raw Decoded Include METAR

Data at: 2151 UTC 08 Aug 2020

METAR for:EGGP (Liverpool/Lennon Arp, --, UK)
Text:EGGP 082120Z 00000KT CAVOK 18/13 Q1022
Temperature: 18.0°C ( 64°F)
Dewpoint: 13.0°C ( 55°F) [RH = 73%]
Pressure (altimeter):30.18 inches Hg (1022.0 mb)
Winds:calm
Visibility:6 or more sm (10+ km)
Ceiling:ceiling and visibility are OK
Clouds:unknown

TAF for:EGGP (Liverpool/Lennon Arp, --, UK) issued at 1657 UTC 08 Aug 2020
Text:TAF EGGP 081657Z 0818/0918 31010KT 9999 FEW040
Forecast period:1800 UTC 08 August 2020 to 1800 UTC 09 August 2020
Forecast type:FROM: standard forecast or significant change
Winds:from the NW (310 degrees) at 12 MPH (10 knots; 5.1 m/s)
Visibility:6 or more sm (10+ km)
Ceiling:at least 12,000 feet AGL
Clouds: few clouds at 4000 feet AGL
Text:BECMG 0818/0821 08007KT
Forecast period:1800 UTC 08 August 2020 to 1800 UTC 09 August 2020
Forecast type:BECOMING: Conditions expected to become as follows by 2100 UTC 08 August 2020
Winds:from the E (80 degrees) at 8 MPH (7 knots; 3.6 m/s)
Visibility:6 or more sm (10+ km)
Ceiling:at least 12,000 feet AGL
Clouds: few clouds at 4000 feet AGL
Text:PROB30
Forecast period:0900 to 1200 UTC 09 August 2020
Forecast type:TEMPORARY: The following changes expected for less than half the time period
Ceiling:1400 feet AGL
Clouds: broken clouds at 1400 feet AGL